sensor_id;sensor_type;location;lat;lon;timestamp;P1;durP1;ratioP1;P2;durP2;ratioP2
82288;SDS011;71889;39.264;-120.910;2024-03-22T00:01:53;0.55;;;0.30;;
82288;SDS011;71889;39.264;-120.910;2024-03-22T00:04:39;0.57;;;0.20;;
82288;SDS011;71889;39.264;-120.910;2024-03-22T00:07:24;0.80;;;0.30;;
82288;SDS011;71889;39.264;-120.910;2024-03-22T00:10:10;0.68;;;0.20;;
82288;SDS011;71889;39.264;-120.910;2024-03-22T00:12:55;1.10;;;0.60;;
82288;SDS011;71889;39.264;-120.910;2024-03-22T00:15:41;0.82;;;0.30;;
82288;SDS011;71889;39.264;-120.910;2024-03-22T00:18:28;0.77;;;0.50;;
82288;SDS011;71889;39.264;-120.910;2024-03-22T00:21:14;1.15;;;0.50;;
82288;SDS011;71889;39.264;-120.910;2024-03-22T00:24:00;1.13;;;0.20;;
82288;SDS011;71889;39.264;-120.910;2024-03-22T00:26:45;0.93;;;0.20;;
82288;SDS011;71889;39.264;-120.910;2024-03-22T00:29:31;1.17;;;0.20;;
82288;SDS011;71889;39.264;-120.910;2024-03-22T00:32:16;1.27;;;0.30;;
82288;SDS011;71889;39.264;-120.910;2024-03-22T00:35:01;0.63;;;0.20;;
82288;SDS011;71889;39.264;-120.910;2024-03-22T00:37:46;2.00;;;0.10;;
82288;SDS011;71889;39.264;-120.910;2024-03-22T00:40:31;0.38;;;0.10;;
82288;SDS011;71889;39.264;-120.910;2024-03-22T00:43:17;0.20;;;0.10;;
82288;SDS011;71889;39.264;-120.910;2024-03-22T00:46:02;0.20;;;0.17;;
82288;SDS011;71889;39.264;-120.910;2024-03-22T00:48:47;0.88;;;0.20;;
82288;SDS011;71889;39.264;-120.910;2024-03-22T00:51:32;0.50;;;0.30;;
82288;SDS011;71889;39.264;-120.910;2024-03-22T00:54:17;1.10;;;0.30;;
82288;SDS011;71889;39.264;-120.910;2024-03-22T00:57:03;0.68;;;0.30;;
82288;SDS011;71889;39.264;-120.910;2024-03-22T00:59:49;0.85;;;0.30;;
82288;SDS011;71889;39.264;-120.910;2024-03-22T01:02:34;1.95;;;0.47;;
82288;SDS011;71889;39.264;-120.910;2024-03-22T01:05:19;0.63;;;0.20;;
82288;SDS011;71889;39.264;-120.910;2024-03-22T01:08:04;0.57;;;0.22;;
82288;SDS011;71889;39.264;-120.910;2024-03-22T01:10:50;0.20;;;0.10;;
82288;SDS011;71889;39.264;-120.910;2024-03-22T01:13:35;0.82;;;0.25;;
82288;SDS011;71889;39.264;-120.910;2024-03-22T01:16:20;0.30;;;0.13;;
82288;SDS011;71889;39.264;-120.910;2024-03-22T01:19:05;0.75;;;0.35;;
82288;SDS011;71889;39.264;-120.910;2024-03-22T01:21:50;1.52;;;0.30;;
82288;SDS011;71889;39.264;-120.910;2024-03-22T01:24:36;1.02;;;0.20;;
82288;SDS011;71889;39.264;-120.910;2024-03-22T01:27:21;0.57;;;0.22;;
82288;SDS011;71889;39.264;-120.910;2024-03-22T01:30:07;0.68;;;0.25;;
82288;SDS011;71889;39.264;-120.910;2024-03-22T01:32:52;0.80;;;0.30;;
82288;SDS011;71889;39.264;-120.910;2024-03-22T01:35:37;1.10;;;0.30;;
82288;SDS011;71889;39.264;-120.910;2024-03-22T01:38:22;0.93;;;0.25;;
82288;SDS011;71889;39.264;-120.910;2024-03-22T01:41:07;3.17;;;0.30;;
82288;SDS011;71889;39.264;-120.910;2024-03-22T01:43:53;0.70;;;0.40;;
82288;SDS011;71889;39.264;-120.910;2024-03-22T01:46:38;0.50;;;0.38;;
82288;SDS011;71889;39.264;-120.910;2024-03-22T01:49:23;2.25;;;0.80;;
82288;SDS011;71889;39.264;-120.910;2024-03-22T01:52:10;2.20;;;0.80;;
82288;SDS011;71889;39.264;-120.910;2024-03-22T01:54:55;1.20;;;0.60;;
82288;SDS011;71889;39.264;-120.910;2024-03-22T01:57:40;4.35;;;1.90;;
82288;SDS011;71889;39.264;-120.910;2024-03-22T02:00:25;4.65;;;2.30;;
82288;SDS011;71889;39.264;-120.910;2024-03-22T02:03:11;5.85;;;2.78;;
82288;SDS011;71889;39.264;-120.910;2024-03-22T02:05:56;6.85;;;1.88;;
82288;SDS011;71889;39.264;-120.910;2024-03-22T02:08:42;4.20;;;1.35;;
82288;SDS011;71889;39.264;-120.910;2024-03-22T02:11:27;3.28;;;1.10;;
82288;SDS011;71889;39.264;-120.910;2024-03-22T02:14:14;1.60;;;0.88;;
82288;SDS011;71889;39.264;-120.910;2024-03-22T02:16:59;2.70;;;0.93;;
82288;SDS011;71889;39.264;-120.910;2024-03-22T02:19:44;1.92;;;0.82;;
82288;SDS011;71889;39.264;-120.910;2024-03-22T02:22:29;2.83;;;1.30;;
82288;SDS011;71889;39.264;-120.910;2024-03-22T02:25:14;3.00;;;1.58;;
82288;SDS011;71889;39.264;-120.910;2024-03-22T02:27:59;3.00;;;1.10;;
82288;SDS011;71889;39.264;-120.910;2024-03-22T02:30:45;2.60;;;1.20;;
82288;SDS011;71889;39.264;-120.910;2024-03-22T02:33:30;2.92;;;1.20;;
82288;SDS011;71889;39.264;-120.910;2024-03-22T02:36:15;2.42;;;1.70;;
82288;SDS011;71889;39.264;-120.910;2024-03-22T02:39:01;2.35;;;1.25;;
82288;SDS011;71889;39.264;-120.910;2024-03-22T02:41:46;4.65;;;1.52;;
82288;SDS011;71889;39.264;-120.910;2024-03-22T02:44:31;3.22;;;1.25;;
82288;SDS011;71889;39.264;-120.910;2024-03-22T02:47:17;161.80;;;59.15;;
82288;SDS011;71889;39.264;-120.910;2024-03-22T02:50:02;106.53;;;40.38;;
82288;SDS011;71889;39.264;-120.910;2024-03-22T02:52:50;126.05;;;49.35;;
82288;SDS011;71889;39.264;-120.910;2024-03-22T02:55:39;88.15;;;33.70;;
82288;SDS011;71889;39.264;-120.910;2024-03-22T02:58:24;96.57;;;36.10;;
82288;SDS011;71889;39.264;-120.910;2024-03-22T03:01:09;123.60;;;48.15;;
82288;SDS011;71889;39.264;-120.910;2024-03-22T03:03:55;67.00;;;28.52;;
82288;SDS011;71889;39.264;-120.910;2024-03-22T03:06:40;34.83;;;15.13;;
82288;SDS011;71889;39.264;-120.910;2024-03-22T03:09:25;14.63;;;6.55;;
82288;SDS011;71889;39.264;-120.910;2024-03-22T03:12:10;4.32;;;1.95;;
82288;SDS011;71889;39.264;-120.910;2024-03-22T03:14:55;2.47;;;0.50;;
82288;SDS011;71889;39.264;-120.910;2024-03-22T03:17:40;1.80;;;0.70;;
82288;SDS011;71889;39.264;-120.910;2024-03-22T03:20:26;4.60;;;1.75;;
82288;SDS011;71889;39.264;-120.910;2024-03-22T03:23:11;4.60;;;1.77;;
82288;SDS011;71889;39.264;-120.910;2024-03-22T03:25:56;4.82;;;2.05;;
82288;SDS011;71889;39.264;-120.910;2024-03-22T03:28:42;5.85;;;1.50;;
82288;SDS011;71889;39.264;-120.910;2024-03-22T03:31:27;7.35;;;2.35;;
82288;SDS011;71889;39.264;-120.910;2024-03-22T03:34:12;11.82;;;4.10;;
82288;SDS011;71889;39.264;-120.910;2024-03-22T03:36:57;22.58;;;7.25;;
82288;SDS011;71889;39.264;-120.910;2024-03-22T03:39:45;44.47;;;15.25;;
82288;SDS011;71889;39.264;-120.910;2024-03-22T03:42:30;100.35;;;34.05;;
82288;SDS011;71889;39.264;-120.910;2024-03-22T03:45:16;114.40;;;38.88;;
82288;SDS011;71889;39.264;-120.910;2024-03-22T03:48:01;179.43;;;66.55;;
82288;SDS011;71889;39.264;-120.910;2024-03-22T03:50:53;124.97;;;44.72;;
82288;SDS011;71889;39.264;-120.910;2024-03-22T03:53:38;114.45;;;40.85;;
82288;SDS011;71889;39.264;-120.910;2024-03-22T03:56:24;95.22;;;33.90;;
82288;SDS011;71889;39.264;-120.910;2024-03-22T03:59:09;85.35;;;33.17;;
82288;SDS011;71889;39.264;-120.910;2024-03-22T04:01:54;81.70;;;29.95;;
82288;SDS011;71889;39.264;-120.910;2024-03-22T04:04:40;44.65;;;16.30;;
82288;SDS011;71889;39.264;-120.910;2024-03-22T04:07:25;25.40;;;9.48;;
82288;SDS011;71889;39.264;-120.910;2024-03-22T04:10:10;36.78;;;12.77;;
82288;SDS011;71889;39.264;-120.910;2024-03-22T04:12:56;21.10;;;7.65;;
82288;SDS011;71889;39.264;-120.910;2024-03-22T04:15:41;19.98;;;7.45;;
82288;SDS011;71889;39.264;-120.910;2024-03-22T04:18:26;30.75;;;10.18;;
82288;SDS011;71889;39.264;-120.910;2024-03-22T04:21:11;14.30;;;6.15;;
82288;SDS011;71889;39.264;-120.910;2024-03-22T04:23:56;8.82;;;3.50;;
82288;SDS011;71889;39.264;-120.910;2024-03-22T04:26:42;9.32;;;2.90;;
82288;SDS011;71889;39.264;-120.910;2024-03-22T04:29:27;12.50;;;4.30;;
82288;SDS011;71889;39.264;-120.910;2024-03-22T04:32:12;8.60;;;3.38;;
82288;SDS011;71889;39.264;-120.910;2024-03-22T04:34:57;5.03;;;2.13;;
82288;SDS011;71889;39.264;-120.910;2024-03-22T04:37:43;5.72;;;2.30;;
82288;SDS011;71889;39.264;-120.910;2024-03-22T04:40:28;4.95;;;2.05;;
82288;SDS011;71889;39.264;-120.910;2024-03-22T04:43:17;5.45;;;1.85;;
82288;SDS011;71889;39.264;-120.910;2024-03-22T04:46:02;12.93;;;5.25;;
82288;SDS011;71889;39.264;-120.910;2024-03-22T04:48:47;15.52;;;6.00;;
82288;SDS011;71889;39.264;-120.910;2024-03-22T04:51:33;12.75;;;6.07;;
82288;SDS011;71889;39.264;-120.910;2024-03-22T04:54:19;6.05;;;2.95;;
82288;SDS011;71889;39.264;-120.910;2024-03-22T04:57:04;5.40;;;2.50;;
82288;SDS011;71889;39.264;-120.910;2024-03-22T04:59:49;5.82;;;1.95;;
82288;SDS011;71889;39.264;-120.910;2024-03-22T05:02:35;6.28;;;2.72;;
82288;SDS011;71889;39.264;-120.910;2024-03-22T05:05:20;4.28;;;2.13;;
82288;SDS011;71889;39.264;-120.910;2024-03-22T05:08:06;3.58;;;1.45;;
82288;SDS011;71889;39.264;-120.910;2024-03-22T05:10:52;5.50;;;1.70;;
82288;SDS011;71889;39.264;-120.910;2024-03-22T05:13:37;4.75;;;1.33;;
82288;SDS011;71889;39.264;-120.910;2024-03-22T05:16:26;3.22;;;1.35;;
82288;SDS011;71889;39.264;-120.910;2024-03-22T05:19:11;5.55;;;1.42;;
82288;SDS011;71889;39.264;-120.910;2024-03-22T05:21:56;4.47;;;1.45;;
82288;SDS011;71889;39.264;-120.910;2024-03-22T05:24:41;1.95;;;0.70;;
82288;SDS011;71889;39.264;-120.910;2024-03-22T05:27:27;1.85;;;1.08;;
82288;SDS011;71889;39.264;-120.910;2024-03-22T05:30:12;3.83;;;1.25;;
82288;SDS011;71889;39.264;-120.910;2024-03-22T05:32:58;3.17;;;1.45;;
82288;SDS011;71889;39.264;-120.910;2024-03-22T05:35:43;3.03;;;1.48;;
82288;SDS011;71889;39.264;-120.910;2024-03-22T05:38:28;3.47;;;1.45;;
82288;SDS011;71889;39.264;-120.910;2024-03-22T05:41:14;3.10;;;1.70;;
82288;SDS011;71889;39.264;-120.910;2024-03-22T05:43:59;3.55;;;1.38;;
82288;SDS011;71889;39.264;-120.910;2024-03-22T05:46:44;2.92;;;1.60;;
82288;SDS011;71889;39.264;-120.910;2024-03-22T05:49:29;4.00;;;1.77;;
82288;SDS011;71889;39.264;-120.910;2024-03-22T05:52:14;5.15;;;1.90;;
82288;SDS011;71889;39.264;-120.910;2024-03-22T05:54:59;5.18;;;1.92;;
82288;SDS011;71889;39.264;-120.910;2024-03-22T05:57:45;7.50;;;2.58;;
82288;SDS011;71889;39.264;-120.910;2024-03-22T06:00:30;4.20;;;1.83;;
82288;SDS011;71889;39.264;-120.910;2024-03-22T06:03:15;5.82;;;1.92;;
82288;SDS011;71889;39.264;-120.910;2024-03-22T06:06:01;5.43;;;2.17;;
82288;SDS011;71889;39.264;-120.910;2024-03-22T06:08:47;9.63;;;2.50;;
82288;SDS011;71889;39.264;-120.910;2024-03-22T06:11:36;7.32;;;2.60;;
82288;SDS011;71889;39.264;-120.910;2024-03-22T06:14:22;11.82;;;3.42;;
82288;SDS011;71889;39.264;-120.910;2024-03-22T06:17:07;12.70;;;4.22;;
82288;SDS011;71889;39.264;-120.910;2024-03-22T06:19:53;11.32;;;4.53;;
82288;SDS011;71889;39.264;-120.910;2024-03-22T06:22:38;9.98;;;4.80;;
82288;SDS011;71889;39.264;-120.910;2024-03-22T06:25:24;9.73;;;4.22;;
82288;SDS011;71889;39.264;-120.910;2024-03-22T06:28:08;9.48;;;3.70;;
82288;SDS011;71889;39.264;-120.910;2024-03-22T06:30:54;8.25;;;3.63;;
82288;SDS011;71889;39.264;-120.910;2024-03-22T06:33:39;8.00;;;3.30;;
82288;SDS011;71889;39.264;-120.910;2024-03-22T06:36:24;8.55;;;2.67;;
82288;SDS011;71889;39.264;-120.910;2024-03-22T06:39:10;6.32;;;2.95;;
82288;SDS011;71889;39.264;-120.910;2024-03-22T06:41:55;6.70;;;2.92;;
82288;SDS011;71889;39.264;-120.910;2024-03-22T06:44:40;6.57;;;2.50;;
82288;SDS011;71889;39.264;-120.910;2024-03-22T06:47:25;9.10;;;2.50;;
82288;SDS011;71889;39.264;-120.910;2024-03-22T06:50:10;5.07;;;2.20;;
82288;SDS011;71889;39.264;-120.910;2024-03-22T06:52:56;5.13;;;2.28;;
82288;SDS011;71889;39.264;-120.910;2024-03-22T06:55:41;5.97;;;2.33;;
82288;SDS011;71889;39.264;-120.910;2024-03-22T06:58:26;4.70;;;2.25;;
82288;SDS011;71889;39.264;-120.910;2024-03-22T07:01:12;4.43;;;1.63;;
82288;SDS011;71889;39.264;-120.910;2024-03-22T07:03:58;10.63;;;5.05;;
82288;SDS011;71889;39.264;-120.910;2024-03-22T07:06:43;4.20;;;2.17;;
82288;SDS011;71889;39.264;-120.910;2024-03-22T07:09:28;2.80;;;1.13;;
82288;SDS011;71889;39.264;-120.910;2024-03-22T07:12:14;3.05;;;1.10;;
82288;SDS011;71889;39.264;-120.910;2024-03-22T07:15:00;2.05;;;0.85;;
82288;SDS011;71889;39.264;-120.910;2024-03-22T07:17:46;2.20;;;1.05;;
82288;SDS011;71889;39.264;-120.910;2024-03-22T07:20:31;2.22;;;0.95;;
82288;SDS011;71889;39.264;-120.910;2024-03-22T07:23:16;2.63;;;0.82;;
82288;SDS011;71889;39.264;-120.910;2024-03-22T07:26:01;3.50;;;1.17;;
82288;SDS011;71889;39.264;-120.910;2024-03-22T07:28:47;2.13;;;0.77;;
82288;SDS011;71889;39.264;-120.910;2024-03-22T07:31:32;4.30;;;1.00;;
82288;SDS011;71889;39.264;-120.910;2024-03-22T07:34:17;1.63;;;1.00;;
82288;SDS011;71889;39.264;-120.910;2024-03-22T07:37:02;3.72;;;1.52;;
82288;SDS011;71889;39.264;-120.910;2024-03-22T07:39:47;6.15;;;2.63;;
82288;SDS011;71889;39.264;-120.910;2024-03-22T07:42:33;6.70;;;2.72;;
82288;SDS011;71889;39.264;-120.910;2024-03-22T07:45:18;5.45;;;2.50;;
82288;SDS011;71889;39.264;-120.910;2024-03-22T07:48:03;6.95;;;3.00;;
82288;SDS011;71889;39.264;-120.910;2024-03-22T07:50:55;6.07;;;1.83;;
82288;SDS011;71889;39.264;-120.910;2024-03-22T07:53:41;6.15;;;1.73;;
82288;SDS011;71889;39.264;-120.910;2024-03-22T07:56:26;4.43;;;1.70;;
82288;SDS011;71889;39.264;-120.910;2024-03-22T07:59:11;4.97;;;1.67;;
82288;SDS011;71889;39.264;-120.910;2024-03-22T08:01:56;3.40;;;1.70;;
82288;SDS011;71889;39.264;-120.910;2024-03-22T08:04:41;5.10;;;1.77;;
82288;SDS011;71889;39.264;-120.910;2024-03-22T08:07:27;4.32;;;1.50;;
82288;SDS011;71889;39.264;-120.910;2024-03-22T08:10:12;5.95;;;1.83;;
82288;SDS011;71889;39.264;-120.910;2024-03-22T08:13:00;6.30;;;1.65;;
82288;SDS011;71889;39.264;-120.910;2024-03-22T08:15:45;2.90;;;1.15;;
82288;SDS011;71889;39.264;-120.910;2024-03-22T08:18:30;4.28;;;1.50;;
82288;SDS011;71889;39.264;-120.910;2024-03-22T08:21:16;6.47;;;1.45;;
82288;SDS011;71889;39.264;-120.910;2024-03-22T08:24:02;2.95;;;1.08;;
82288;SDS011;71889;39.264;-120.910;2024-03-22T08:26:47;3.90;;;1.70;;
82288;SDS011;71889;39.264;-120.910;2024-03-22T08:29:32;5.10;;;1.27;;
82288;SDS011;71889;39.264;-120.910;2024-03-22T08:32:17;3.63;;;1.42;;
82288;SDS011;71889;39.264;-120.910;2024-03-22T08:35:03;3.35;;;1.23;;
82288;SDS011;71889;39.264;-120.910;2024-03-22T08:37:48;1.70;;;0.77;;
82288;SDS011;71889;39.264;-120.910;2024-03-22T08:40:33;3.00;;;1.20;;
82288;SDS011;71889;39.264;-120.910;2024-03-22T08:43:19;2.72;;;1.02;;
82288;SDS011;71889;39.264;-120.910;2024-03-22T08:46:06;2.22;;;1.30;;
82288;SDS011;71889;39.264;-120.910;2024-03-22T08:48:52;3.08;;;1.08;;
82288;SDS011;71889;39.264;-120.910;2024-03-22T08:51:37;4.38;;;1.77;;
82288;SDS011;71889;39.264;-120.910;2024-03-22T08:54:23;11.25;;;3.05;;
82288;SDS011;71889;39.264;-120.910;2024-03-22T08:57:08;16.17;;;4.25;;
82288;SDS011;71889;39.264;-120.910;2024-03-22T08:59:53;12.95;;;4.38;;
82288;SDS011;71889;39.264;-120.910;2024-03-22T09:02:39;8.15;;;2.97;;
82288;SDS011;71889;39.264;-120.910;2024-03-22T09:05:24;8.48;;;2.63;;
82288;SDS011;71889;39.264;-120.910;2024-03-22T09:08:09;4.80;;;1.65;;
82288;SDS011;71889;39.264;-120.910;2024-03-22T09:10:54;3.45;;;1.20;;
82288;SDS011;71889;39.264;-120.910;2024-03-22T09:13:40;3.30;;;1.25;;
82288;SDS011;71889;39.264;-120.910;2024-03-22T09:16:25;3.35;;;1.10;;
82288;SDS011;71889;39.264;-120.910;2024-03-22T09:19:10;4.50;;;0.90;;
82288;SDS011;71889;39.264;-120.910;2024-03-22T09:21:56;2.13;;;0.85;;
82288;SDS011;71889;39.264;-120.910;2024-03-22T09:24:41;2.50;;;1.10;;
82288;SDS011;71889;39.264;-120.910;2024-03-22T09:27:27;3.47;;;0.98;;
82288;SDS011;71889;39.264;-120.910;2024-03-22T09:30:12;7.63;;;1.42;;
82288;SDS011;71889;39.264;-120.910;2024-03-22T09:32:57;3.80;;;1.20;;
82288;SDS011;71889;39.264;-120.910;2024-03-22T09:35:42;4.45;;;1.40;;
82288;SDS011;71889;39.264;-120.910;2024-03-22T09:38:27;3.53;;;1.48;;
82288;SDS011;71889;39.264;-120.910;2024-03-22T09:41:14;4.55;;;1.50;;
82288;SDS011;71889;39.264;-120.910;2024-03-22T09:43:59;3.70;;;1.00;;
82288;SDS011;71889;39.264;-120.910;2024-03-22T09:46:46;2.63;;;1.23;;
82288;SDS011;71889;39.264;-120.910;2024-03-22T09:49:32;3.08;;;1.15;;
82288;SDS011;71889;39.264;-120.910;2024-03-22T09:52:18;0.88;;;0.55;;
82288;SDS011;71889;39.264;-120.910;2024-03-22T09:55:05;1.13;;;0.52;;
82288;SDS011;71889;39.264;-120.910;2024-03-22T09:57:50;1.20;;;0.50;;
82288;SDS011;71889;39.264;-120.910;2024-03-22T10:00:37;1.60;;;0.57;;
82288;SDS011;71889;39.264;-120.910;2024-03-22T10:03:23;0.95;;;0.45;;
82288;SDS011;71889;39.264;-120.910;2024-03-22T10:06:08;1.23;;;0.60;;
82288;SDS011;71889;39.264;-120.910;2024-03-22T10:08:54;0.93;;;0.43;;
82288;SDS011;71889;39.264;-120.910;2024-03-22T10:11:39;1.55;;;0.40;;
82288;SDS011;71889;39.264;-120.910;2024-03-22T10:14:24;0.80;;;0.40;;
82288;SDS011;71889;39.264;-120.910;2024-03-22T10:17:11;1.17;;;0.40;;
82288;SDS011;71889;39.264;-120.910;2024-03-22T10:19:56;0.90;;;0.30;;
82288;SDS011;71889;39.264;-120.910;2024-03-22T10:22:42;1.52;;;0.50;;
82288;SDS011;71889;39.264;-120.910;2024-03-22T10:25:28;1.90;;;0.40;;
82288;SDS011;71889;39.264;-120.910;2024-03-22T10:28:13;1.00;;;0.50;;
82288;SDS011;71889;39.264;-120.910;2024-03-22T10:30:59;1.35;;;0.45;;
82288;SDS011;71889;39.264;-120.910;2024-03-22T10:33:44;1.42;;;0.50;;
82288;SDS011;71889;39.264;-120.910;2024-03-22T10:36:30;2.05;;;0.38;;
82288;SDS011;71889;39.264;-120.910;2024-03-22T10:39:17;1.90;;;0.45;;
82288;SDS011;71889;39.264;-120.910;2024-03-22T10:44:50;0.95;;;0.40;;
82288;SDS011;71889;39.264;-120.910;2024-03-22T10:47:35;0.82;;;0.38;;
82288;SDS011;71889;39.264;-120.910;2024-03-22T10:50:21;2.30;;;0.55;;
82288;SDS011;71889;39.264;-120.910;2024-03-22T10:53:16;0.80;;;0.50;;
82288;SDS011;71889;39.264;-120.910;2024-03-22T10:56:04;1.75;;;0.30;;
82288;SDS011;71889;39.264;-120.910;2024-03-22T10:58:50;0.73;;;0.40;;
82288;SDS011;71889;39.264;-120.910;2024-03-22T11:01:36;0.77;;;0.40;;
82288;SDS011;71889;39.264;-120.910;2024-03-22T11:04:22;0.82;;;0.35;;
82288;SDS011;71889;39.264;-120.910;2024-03-22T11:07:07;0.98;;;0.30;;
82288;SDS011;71889;39.264;-120.910;2024-03-22T11:09:52;1.38;;;0.55;;
82288;SDS011;71889;39.264;-120.910;2024-03-22T11:12:41;1.23;;;0.43;;
82288;SDS011;71889;39.264;-120.910;2024-03-22T11:15:27;3.70;;;0.60;;
82288;SDS011;71889;39.264;-120.910;2024-03-22T11:18:13;1.50;;;0.40;;
82288;SDS011;71889;39.264;-120.910;2024-03-22T11:20:59;1.27;;;0.50;;
82288;SDS011;71889;39.264;-120.910;2024-03-22T11:23:47;4.30;;;0.65;;
82288;SDS011;71889;39.264;-120.910;2024-03-22T11:26:35;1.05;;;0.40;;
82288;SDS011;71889;39.264;-120.910;2024-03-22T11:29:21;1.35;;;0.60;;
82288;SDS011;71889;39.264;-120.910;2024-03-22T11:32:06;1.77;;;0.45;;
82288;SDS011;71889;39.264;-120.910;2024-03-22T11:34:54;1.95;;;0.70;;
82288;SDS011;71889;39.264;-120.910;2024-03-22T11:37:39;0.77;;;0.25;;
82288;SDS011;71889;39.264;-120.910;2024-03-22T11:40:27;1.40;;;0.40;;
82288;SDS011;71889;39.264;-120.910;2024-03-22T11:43:17;1.73;;;0.50;;
82288;SDS011;71889;39.264;-120.910;2024-03-22T11:46:02;1.45;;;0.32;;
82288;SDS011;71889;39.264;-120.910;2024-03-22T11:48:51;2.35;;;0.40;;
82288;SDS011;71889;39.264;-120.910;2024-03-22T11:51:38;2.35;;;0.50;;
82288;SDS011;71889;39.264;-120.910;2024-03-22T11:54:23;0.70;;;0.30;;
82288;SDS011;71889;39.264;-120.910;2024-03-22T11:57:09;1.52;;;0.70;;
82288;SDS011;71889;39.264;-120.910;2024-03-22T11:59:58;0.90;;;0.35;;
82288;SDS011;71889;39.264;-120.910;2024-03-22T12:02:44;2.35;;;1.08;;
82288;SDS011;71889;39.264;-120.910;2024-03-22T12:05:30;0.90;;;0.30;;
82288;SDS011;71889;39.264;-120.910;2024-03-22T12:08:15;1.23;;;0.40;;
82288;SDS011;71889;39.264;-120.910;2024-03-22T12:11:00;1.02;;;0.50;;
82288;SDS011;71889;39.264;-120.910;2024-03-22T12:13:46;1.08;;;0.43;;
82288;SDS011;71889;39.264;-120.910;2024-03-22T12:16:31;0.95;;;0.43;;
82288;SDS011;71889;39.264;-120.910;2024-03-22T12:19:17;1.60;;;0.73;;
82288;SDS011;71889;39.264;-120.910;2024-03-22T12:22:02;3.08;;;0.90;;
82288;SDS011;71889;39.264;-120.910;2024-03-22T12:24:49;1.60;;;0.70;;
82288;SDS011;71889;39.264;-120.910;2024-03-22T12:27:34;0.55;;;0.28;;
82288;SDS011;71889;39.264;-120.910;2024-03-22T12:30:20;1.88;;;0.98;;
82288;SDS011;71889;39.264;-120.910;2024-03-22T12:33:05;1.88;;;1.10;;
82288;SDS011;71889;39.264;-120.910;2024-03-22T12:35:54;1.52;;;0.70;;
82288;SDS011;71889;39.264;-120.910;2024-03-22T12:38:39;1.90;;;0.90;;
82288;SDS011;71889;39.264;-120.910;2024-03-22T12:41:25;1.20;;;0.43;;
82288;SDS011;71889;39.264;-120.910;2024-03-22T12:44:10;0.75;;;0.32;;
82288;SDS011;71889;39.264;-120.910;2024-03-22T12:46:55;0.90;;;0.35;;
82288;SDS011;71889;39.264;-120.910;2024-03-22T12:49:40;1.42;;;0.60;;
82288;SDS011;71889;39.264;-120.910;2024-03-22T12:52:26;3.13;;;1.92;;
82288;SDS011;71889;39.264;-120.910;2024-03-22T12:55:11;5.70;;;3.75;;
82288;SDS011;71889;39.264;-120.910;2024-03-22T12:57:56;7.05;;;4.18;;
82288;SDS011;71889;39.264;-120.910;2024-03-22T13:00:42;5.90;;;3.65;;
82288;SDS011;71889;39.264;-120.910;2024-03-22T13:03:27;5.13;;;3.05;;
82288;SDS011;71889;39.264;-120.910;2024-03-22T13:06:12;12.82;;;6.75;;
82288;SDS011;71889;39.264;-120.910;2024-03-22T13:08:57;3.25;;;1.00;;
82288;SDS011;71889;39.264;-120.910;2024-03-22T13:11:42;2.50;;;1.17;;
82288;SDS011;71889;39.264;-120.910;2024-03-22T13:14:28;2.97;;;0.90;;
82288;SDS011;71889;39.264;-120.910;2024-03-22T13:17:13;1.33;;;0.80;;
82288;SDS011;71889;39.264;-120.910;2024-03-22T13:19:58;1.17;;;0.57;;
82288;SDS011;71889;39.264;-120.910;2024-03-22T13:22:43;1.55;;;0.52;;
82288;SDS011;71889;39.264;-120.910;2024-03-22T13:25:29;0.88;;;0.50;;
82288;SDS011;71889;39.264;-120.910;2024-03-22T13:28:15;2.00;;;0.57;;
82288;SDS011;71889;39.264;-120.910;2024-03-22T13:31:06;0.50;;;0.30;;
82288;SDS011;71889;39.264;-120.910;2024-03-22T13:33:51;1.08;;;0.50;;
82288;SDS011;71889;39.264;-120.910;2024-03-22T13:36:36;1.02;;;0.50;;
82288;SDS011;71889;39.264;-120.910;2024-03-22T13:39:22;1.60;;;0.55;;
82288;SDS011;71889;39.264;-120.910;2024-03-22T13:42:07;1.92;;;0.68;;
82288;SDS011;71889;39.264;-120.910;2024-03-22T13:44:53;1.98;;;0.40;;
82288;SDS011;71889;39.264;-120.910;2024-03-22T13:47:41;2.03;;;0.60;;
82288;SDS011;71889;39.264;-120.910;2024-03-22T13:50:26;1.63;;;0.50;;
82288;SDS011;71889;39.264;-120.910;2024-03-22T13:53:11;3.55;;;0.70;;
82288;SDS011;71889;39.264;-120.910;2024-03-22T13:55:59;1.85;;;0.60;;
82288;SDS011;71889;39.264;-120.910;2024-03-22T13:58:45;2.00;;;0.70;;
82288;SDS011;71889;39.264;-120.910;2024-03-22T14:01:30;0.82;;;0.30;;
82288;SDS011;71889;39.264;-120.910;2024-03-22T14:04:15;0.73;;;0.40;;
82288;SDS011;71889;39.264;-120.910;2024-03-22T14:07:00;0.70;;;0.50;;
82288;SDS011;71889;39.264;-120.910;2024-03-22T14:12:33;1.52;;;0.55;;
82288;SDS011;71889;39.264;-120.910;2024-03-22T14:15:18;0.77;;;0.32;;
82288;SDS011;71889;39.264;-120.910;2024-03-22T14:18:04;0.70;;;0.38;;
82288;SDS011;71889;39.264;-120.910;2024-03-22T14:20:49;1.33;;;0.30;;
82288;SDS011;71889;39.264;-120.910;2024-03-22T14:23:34;1.10;;;0.65;;
82288;SDS011;71889;39.264;-120.910;2024-03-22T14:26:19;0.88;;;0.40;;
82288;SDS011;71889;39.264;-120.910;2024-03-22T14:29:04;0.63;;;0.30;;
82288;SDS011;71889;39.264;-120.910;2024-03-22T14:31:50;1.20;;;0.50;;
82288;SDS011;71889;39.264;-120.910;2024-03-22T14:34:35;1.90;;;0.47;;
82288;SDS011;71889;39.264;-120.910;2024-03-22T14:37:21;1.13;;;0.30;;
82288;SDS011;71889;39.264;-120.910;2024-03-22T14:40:07;1.60;;;0.40;;
82288;SDS011;71889;39.264;-120.910;2024-03-22T14:42:54;1.92;;;0.60;;
82288;SDS011;71889;39.264;-120.910;2024-03-22T14:45:39;2.45;;;0.90;;
82288;SDS011;71889;39.264;-120.910;2024-03-22T14:48:24;3.72;;;0.65;;
82288;SDS011;71889;39.264;-120.910;2024-03-22T14:51:09;1.20;;;0.35;;
82288;SDS011;71889;39.264;-120.910;2024-03-22T14:53:55;2.78;;;0.80;;
82288;SDS011;71889;39.264;-120.910;2024-03-22T14:56:40;1.58;;;0.40;;
82288;SDS011;71889;39.264;-120.910;2024-03-22T14:59:29;2.22;;;0.60;;
82288;SDS011;71889;39.264;-120.910;2024-03-22T15:02:14;1.02;;;0.45;;
82288;SDS011;71889;39.264;-120.910;2024-03-22T15:05:00;2.38;;;0.60;;
82288;SDS011;71889;39.264;-120.910;2024-03-22T15:07:45;1.70;;;0.52;;
82288;SDS011;71889;39.264;-120.910;2024-03-22T15:10:31;5.05;;;1.65;;
82288;SDS011;71889;39.264;-120.910;2024-03-22T15:13:17;10.10;;;4.30;;
82288;SDS011;71889;39.264;-120.910;2024-03-22T15:16:02;12.77;;;5.50;;
82288;SDS011;71889;39.264;-120.910;2024-03-22T15:18:47;34.00;;;11.18;;
82288;SDS011;71889;39.264;-120.910;2024-03-22T15:21:33;34.50;;;12.45;;
82288;SDS011;71889;39.264;-120.910;2024-03-22T15:24:18;13.20;;;6.00;;
82288;SDS011;71889;39.264;-120.910;2024-03-22T15:27:03;9.15;;;3.88;;
82288;SDS011;71889;39.264;-120.910;2024-03-22T15:29:48;6.47;;;2.92;;
82288;SDS011;71889;39.264;-120.910;2024-03-22T15:32:34;8.25;;;3.40;;
82288;SDS011;71889;39.264;-120.910;2024-03-22T15:35:20;3.67;;;1.70;;
82288;SDS011;71889;39.264;-120.910;2024-03-22T15:38:05;3.28;;;1.60;;
82288;SDS011;71889;39.264;-120.910;2024-03-22T15:40:50;3.15;;;1.40;;
82288;SDS011;71889;39.264;-120.910;2024-03-22T15:43:36;2.00;;;1.02;;
82288;SDS011;71889;39.264;-120.910;2024-03-22T15:46:21;3.55;;;0.70;;
82288;SDS011;71889;39.264;-120.910;2024-03-22T15:49:06;3.00;;;0.80;;
82288;SDS011;71889;39.264;-120.910;2024-03-22T15:51:51;2.03;;;1.00;;
82288;SDS011;71889;39.264;-120.910;2024-03-22T15:54:37;1.83;;;0.95;;
82288;SDS011;71889;39.264;-120.910;2024-03-22T15:57:22;1.92;;;0.70;;